createdAt,value
2023-01-22T00:02:12.055Z,100788.59
2023-01-22T00:04:45.828Z,100796.34
2023-01-22T00:07:20.217Z,100805.81
2023-01-22T00:09:52.699Z,100805.53
2023-01-22T00:12:23.788Z,100809.88
2023-01-22T00:15:06.538Z,100804.06
2023-01-22T00:17:40.023Z,100808.88
2023-01-22T00:20:15.743Z,100809.22
2023-01-22T00:22:50.835Z,100812.97
2023-01-22T00:25:22.024Z,100814.66
2023-01-22T00:27:56.920Z,100814.75
2023-01-22T00:30:36.208Z,100815.78
2023-01-22T00:33:10.660Z,100820.41
2023-01-22T00:35:43.250Z,100817.81
2023-01-22T00:38:15.249Z,100823.44
2023-01-22T00:40:48.265Z,100829.78
2023-01-22T00:43:20.339Z,100831.38
2023-01-22T00:45:54.136Z,100831.88
2023-01-22T00:48:24.979Z,100823.84
2023-01-22T00:51:03.938Z,100825.97
2023-01-22T00:53:42.997Z,100825.81
2023-01-22T00:56:16.256Z,100826.88
2023-01-22T00:58:48.157Z,100825.81
2023-01-22T01:01:21.506Z,100818.69
2023-01-22T01:04:06.738Z,100816.53
2023-01-22T01:06:37.570Z,100818.28
2023-01-22T01:09:11.190Z,100810.75
2023-01-22T01:11:43.128Z,100805.63
2023-01-22T01:14:18.467Z,100800.56
2023-01-22T01:16:52.361Z,100795.16
2023-01-22T01:19:25.101Z,100787.28
2023-01-22T01:22:07.648Z,100787.34
2023-01-22T01:24:46.002Z,100795.09
2023-01-22T01:27:17.387Z,100792.34
2023-01-22T01:29:50.220Z,100802.81
2023-01-22T01:32:22.027Z,100796.41
2023-01-22T01:34:52.854Z,100795.59
2023-01-22T01:37:22.921Z,100793.19
2023-01-22T01:39:54.305Z,100796.91
2023-01-22T01:42:34.312Z,100795.97
2023-01-22T01:45:34.442Z,100787.09
2023-01-22T01:48:42.723Z,100779.31
2023-01-22T01:51:34.987Z,100780.75
2023-01-22T01:54:07.614Z,100791.16
2023-01-22T01:56:45.770Z,100790.72
2023-01-22T01:59:24.311Z,100803.53
2023-01-22T02:02:06.366Z,100803.78
2023-01-22T02:04:38.658Z,100806.22
2023-01-22T02:07:10.260Z,100800.66
2023-01-22T02:09:42.210Z,100806.25
2023-01-22T02:12:12.251Z,100804.59
2023-01-22T02:14:48.218Z,100807.28
2023-01-22T02:17:23.910Z,100817.66
2023-01-22T02:20:02.890Z,100823.41
2023-01-22T02:22:43.623Z,100829.84
2023-01-22T02:25:15.761Z,100834.59
2023-01-22T02:27:51.798Z,100834.03
2023-01-22T02:30:36.651Z,100846.91
2023-01-22T02:33:13.713Z,100834.31
2023-01-22T02:36:26.491Z,100832.94
2023-01-22T02:40:15.542Z,100831.50
2023-01-22T02:42:51.297Z,100822.56
2023-01-22T02:45:24.188Z,100808.72
2023-01-22T02:47:58.003Z,100806.75
2023-01-22T02:50:36.190Z,100809.03
2023-01-22T02:53:10.296Z,100805.16
2023-01-22T02:55:40.525Z,100811.81
2023-01-22T02:58:12.096Z,100816.94
2023-01-22T03:00:44.481Z,100819.06
2023-01-22T03:03:20.027Z,100820.91
2023-01-22T03:05:52.330Z,100807.91
2023-01-22T03:08:22.560Z,100788.88
2023-01-22T03:11:03.863Z,100774.53
2023-01-22T03:13:53.522Z,100759.78
2023-01-22T03:16:43.323Z,100762.03
2023-01-22T03:19:35.297Z,100765.66
2023-01-22T03:22:11.970Z,100757.13
2023-01-22T03:24:46.336Z,100758.50
2023-01-22T03:27:20.086Z,100747.41
2023-01-22T03:30:11.831Z,100741.34
2023-01-22T03:32:56.144Z,100743.81
2023-01-22T03:35:48.667Z,100739.44
2023-01-22T03:38:26.314Z,100737.78
2023-01-22T03:41:20.088Z,100739.91
2023-01-22T03:43:55.478Z,100734.66
2023-01-22T03:46:44.284Z,100738.75
2023-01-22T03:49:24.204Z,100749.38
2023-01-22T03:52:07.602Z,100740.78
2023-01-22T03:54:42.055Z,100738.88
2023-01-22T03:57:19.504Z,100742.66
2023-01-22T03:59:52.455Z,100729.66
2023-01-22T04:02:23.640Z,100727.59
2023-01-22T04:05:09.878Z,100728.81
2023-01-22T04:07:41.628Z,100742.56
2023-01-22T04:10:12.038Z,100736.84
2023-01-22T04:12:46.548Z,100736.50
2023-01-22T04:15:19.984Z,100725.72
2023-01-22T04:17:51.846Z,100724.84
2023-01-22T04:20:49.485Z,100726.41
2023-01-22T04:23:36.185Z,100728.94
2023-01-22T04:26:09.229Z,100731.78
2023-01-22T04:28:42.104Z,100719.25
2023-01-22T04:31:12.619Z,100721.41
2023-01-22T04:34:02.081Z,100730.66
2023-01-22T04:36:35.809Z,100719.19
2023-01-22T04:39:05.647Z,100701.38
2023-01-22T04:41:36.145Z,100726.41
2023-01-22T04:44:08.117Z,100729.91
2023-01-22T04:46:40.594Z,100729.22
2023-01-22T04:49:11.855Z,100730.59
2023-01-22T04:51:43.599Z,100732.75
2023-01-22T04:54:17.977Z,100757.84
2023-01-22T04:56:49.245Z,100768.84
2023-01-22T04:59:21.846Z,100749.34
2023-01-22T05:01:51.684Z,100735.78
2023-01-22T05:04:34.089Z,100733.13
2023-01-22T05:07:04.053Z,100747.91
2023-01-22T05:09:47.478Z,100761.72
2023-01-22T05:12:24.089Z,100741.69
2023-01-22T05:15:07.290Z,100724.25
2023-01-22T05:17:44.043Z,100745.56
2023-01-22T05:20:16.347Z,100739.56
2023-01-22T05:22:51.864Z,100746.53
2023-01-22T05:25:35.761Z,100750.44
2023-01-22T05:28:10.481Z,100754.81
2023-01-22T05:31:07.219Z,100756.31
2023-01-22T05:33:43.393Z,100763.84
2023-01-22T05:36:15.829Z,100752.78
2023-01-22T05:38:50.801Z,100757.03
2023-01-22T05:41:21.814Z,100751.50
2023-01-22T05:44:03.230Z,100746.09
2023-01-22T05:46:38.918Z,100730.78
2023-01-22T05:49:34.982Z,100728.88
2023-01-22T05:52:04.337Z,100739.25
2023-01-22T05:54:47.728Z,100745.38
2023-01-22T05:57:19.540Z,100763.88
2023-01-22T05:59:51.675Z,100750.28
2023-01-22T06:02:26.891Z,100753.06
2023-01-22T06:05:03.304Z,100749.69
2023-01-22T06:07:36.667Z,100754.03
2023-01-22T06:10:12.431Z,100744.16
2023-01-22T06:12:51.421Z,100742.81
2023-01-22T06:15:22.635Z,100737.66
2023-01-22T06:18:08.030Z,100729.47
2023-01-22T06:20:42.477Z,100725.34
2023-01-22T06:23:16.133Z,100722.94
2023-01-22T06:25:55.182Z,100724.28
2023-01-22T06:28:26.070Z,100723.66
2023-01-22T06:31:09.377Z,100722.81
2023-01-22T06:33:43.516Z,100725.69
2023-01-22T06:36:16.145Z,100733.56
2023-01-22T06:38:48.670Z,100716.97
2023-01-22T06:41:36.847Z,100714.31
2023-01-22T06:44:12.144Z,100712.09
2023-01-22T06:46:44.129Z,100710.16
2023-01-22T06:49:21.728Z,100709.53
2023-01-22T06:51:51.491Z,100722.03
2023-01-22T06:54:23.845Z,100729.38
2023-01-22T06:57:00.004Z,100717.59
2023-01-22T06:59:35.277Z,100723.97
2023-01-22T07:02:16.474Z,100732.38
2023-01-22T07:04:51.231Z,100729.97
2023-01-22T07:07:24.052Z,100724.34
2023-01-22T07:10:07.295Z,100717.59
2023-01-22T07:12:39.065Z,100714.09
2023-01-22T07:15:11.988Z,100714.13
2023-01-22T07:17:44.115Z,100716.16
2023-01-22T07:20:19.404Z,100712.88
2023-01-22T07:22:51.695Z,100719.13
2023-01-22T07:25:23.704Z,100719.19
2023-01-22T07:28:09.812Z,100708.88
2023-01-22T07:30:42.156Z,100711.53
2023-01-22T07:33:13.978Z,100702.88
2023-01-22T07:35:44.720Z,100688.09
2023-01-22T07:38:16.556Z,100684.97
2023-01-22T07:40:49.979Z,100685.56
2023-01-22T07:43:23.049Z,100672.34
2023-01-22T07:45:52.985Z,100668.53
2023-01-22T07:48:29.451Z,100670.47
2023-01-22T07:51:10.259Z,100674.53
2023-01-22T07:53:42.261Z,100678.28
2023-01-22T07:56:12.659Z,100666.00
2023-01-22T07:58:43.837Z,100665.88
2023-01-22T08:01:17.903Z,100662.63
2023-01-22T08:03:47.878Z,100659.03
2023-01-22T08:06:22.765Z,100666.84
2023-01-22T08:08:54.368Z,100650.53
2023-01-22T08:11:24.238Z,100654.94
2023-01-22T08:14:03.999Z,100662.31
2023-01-22T08:16:34.531Z,100673.75
2023-01-22T08:19:04.374Z,100691.03
2023-01-22T08:21:35.354Z,100683.38
2023-01-22T08:24:10.255Z,100690.88
2023-01-22T08:26:40.976Z,100669.97
2023-01-22T08:29:11.669Z,100660.06
2023-01-22T08:31:44.244Z,100666.56
2023-01-22T08:34:17.921Z,100667.06
2023-01-22T08:36:50.245Z,100655.19
2023-01-22T08:39:20.335Z,100634.91
2023-01-22T08:42:07.741Z,100642.13
2023-01-22T08:44:42.935Z,100641.75
2023-01-22T08:47:12.776Z,100642.94
2023-01-22T08:49:44.521Z,100627.94
2023-01-22T08:52:16.857Z,100635.50
2023-01-22T08:54:50.531Z,100623.97
2023-01-22T08:57:20.076Z,100635.25
2023-01-22T09:00:00.772Z,100625.97
2023-01-22T09:02:35.833Z,100616.38
2023-01-22T09:05:10.673Z,100609.28
2023-01-22T09:07:46.318Z,100606.88
2023-01-22T09:10:17.337Z,100604.81
2023-01-22T09:12:50.199Z,100605.09
2023-01-22T09:15:19.954Z,100591.84
2023-01-22T09:17:52.465Z,100569.97
2023-01-22T09:20:24.677Z,100576.06
2023-01-22T09:22:56.595Z,100572.56
2023-01-22T09:25:32.745Z,100579.41
2023-01-22T09:28:07.798Z,100567.41
2023-01-22T09:30:44.229Z,100562.88
2023-01-22T09:33:14.566Z,100564.91
2023-01-22T09:35:46.342Z,100549.31
2023-01-22T09:38:19.314Z,100547.03
2023-01-22T09:41:03.659Z,100547.28
2023-01-22T09:43:46.549Z,100532.41
2023-01-22T09:46:45.568Z,100524.00
2023-01-22T09:49:19.024Z,100530.78
2023-01-22T09:52:05.263Z,100532.94
2023-01-22T09:54:36.259Z,100523.53
2023-01-22T09:57:29.945Z,100518.59
2023-01-22T10:00:03.207Z,100515.63
2023-01-22T10:02:48.262Z,100513.84
2023-01-22T10:05:36.568Z,100529.22
2023-01-22T10:08:26.718Z,100529.34
2023-01-22T10:11:06.457Z,100536.91
2023-01-22T10:13:42.452Z,100556.09
2023-01-22T10:16:15.397Z,100544.66
2023-01-22T10:18:56.529Z,100537.38
2023-01-22T10:21:40.608Z,100537.00
2023-01-22T10:24:14.372Z,100536.47
2023-01-22T10:26:57.018Z,100545.06
2023-01-22T10:29:42.330Z,100555.88
2023-01-22T10:32:31.734Z,100556.25
2023-01-22T10:35:17.940Z,100553.59
2023-01-22T10:37:52.585Z,100550.97
2023-01-22T10:40:30.605Z,100552.38
2023-01-22T10:43:19.949Z,100554.91
2023-01-22T10:46:15.580Z,100533.19
2023-01-22T10:48:46.103Z,100526.03
2023-01-22T10:51:31.557Z,100514.59
2023-01-22T10:54:03.655Z,100513.50
2023-01-22T10:56:43.506Z,100506.53
2023-01-22T10:59:34.361Z,100500.91
2023-01-22T11:02:18.673Z,100501.03
2023-01-22T11:04:50.789Z,100483.72
2023-01-22T11:07:34.233Z,100489.28
2023-01-22T11:10:27.001Z,100470.00
2023-01-22T11:13:24.427Z,100461.03
2023-01-22T11:16:10.456Z,100470.59
2023-01-22T11:18:44.630Z,100483.31
2023-01-22T11:21:40.040Z,100482.25
2023-01-22T11:24:19.598Z,100497.81
2023-01-22T11:26:50.404Z,100478.28
2023-01-22T11:29:40.090Z,100469.88
2023-01-22T11:32:35.635Z,100462.69
2023-01-22T11:35:36.243Z,100463.91
2023-01-22T11:38:45.364Z,100463.59
2023-01-22T11:41:21.340Z,100454.66
2023-01-22T11:44:26.521Z,100465.81
2023-01-22T11:47:43.726Z,100456.25
2023-01-22T11:50:33.067Z,100465.34
2023-01-22T11:53:25.921Z,100475.19
2023-01-22T11:56:04.279Z,100487.31
2023-01-22T11:59:02.531Z,100460.81
2023-01-22T12:01:47.819Z,100472.75
2023-01-22T12:04:35.676Z,100481.03
2023-01-22T12:07:47.208Z,100476.75
2023-01-22T12:11:03.384Z,100463.69
2023-01-22T12:13:38.570Z,100459.81
2023-01-22T12:16:12.684Z,100456.34
2023-01-22T12:18:58.853Z,100453.47
2023-01-22T12:21:43.248Z,100437.50
2023-01-22T12:24:30.238Z,100448.53
2023-01-22T12:27:43.154Z,100456.88
2023-01-22T12:30:35.489Z,100471.97
2023-01-22T12:33:07.659Z,100456.81
2023-01-22T12:35:40.623Z,100456.69
2023-01-22T12:38:44.131Z,100441.84
2023-01-22T12:41:36.525Z,100447.38
2023-01-22T12:52:46.148Z,100417.28
2023-01-22T12:55:41.636Z,100426.22
2023-01-22T12:58:26.652Z,100432.34
2023-01-22T13:01:18.320Z,100446.88
2023-01-22T13:04:08.626Z,100420.31
2023-01-22T13:06:50.646Z,100398.84
2023-01-22T13:09:32.182Z,100402.47
2023-01-22T13:12:30.396Z,100426.84
2023-01-22T13:15:04.623Z,100412.59
2023-01-22T13:17:43.453Z,100414.91
2023-01-22T13:20:20.633Z,100415.56
2023-01-22T13:22:56.519Z,100408.75
2023-01-22T13:25:35.026Z,100411.25
2023-01-22T13:28:06.712Z,100413.38
2023-01-22T13:30:48.222Z,100429.63
2023-01-22T13:33:46.100Z,100432.91
2023-01-22T13:36:19.344Z,100422.34
2023-01-22T13:39:02.718Z,100405.00
2023-01-22T13:41:40.047Z,100412.19
2023-01-22T13:44:31.244Z,100429.34
2023-01-22T13:47:06.016Z,100440.88
2023-01-22T13:49:43.500Z,100459.00
2023-01-22T13:52:20.286Z,100445.19
2023-01-22T13:55:14.180Z,100439.22
2023-01-22T13:57:59.514Z,100435.53
2023-01-22T14:00:35.909Z,100429.28
2023-01-22T14:03:23.717Z,100441.63
2023-01-22T14:06:09.315Z,100449.94
2023-01-22T14:08:52.499Z,100421.97
2023-01-22T14:11:24.580Z,100405.53
2023-01-22T14:14:06.204Z,100424.38
2023-01-22T14:16:46.084Z,100440.13
2023-01-22T14:23:50.944Z,100409.50
2023-01-22T14:26:22.337Z,100444.97
2023-01-22T14:28:54.518Z,100413.44
2023-01-22T14:31:24.540Z,100386.06
2023-01-22T14:33:54.721Z,100385.66
2023-01-22T14:36:24.117Z,100375.47
2023-01-22T14:39:15.956Z,100376.72
2023-01-22T14:41:51.871Z,100366.50
2023-01-22T14:44:23.961Z,100368.16
2023-01-22T14:46:58.780Z,100381.13
2023-01-22T14:49:34.819Z,100403.19
2023-01-22T14:52:06.388Z,100406.25
2023-01-22T14:54:40.357Z,100412.66
2023-01-22T14:57:18.323Z,100413.47
2023-01-22T14:59:48.632Z,100414.84
2023-01-22T15:02:29.011Z,100416.94
2023-01-22T15:05:04.655Z,100402.19
2023-01-22T15:07:39.596Z,100408.22
2023-01-22T15:10:14.568Z,100394.34
2023-01-22T15:12:55.250Z,100389.00
2023-01-22T15:15:35.831Z,100378.16
2023-01-22T15:18:07.815Z,100378.16
2023-01-22T15:20:40.737Z,100383.47
2023-01-22T15:23:14.443Z,100370.19
2023-01-22T15:25:46.527Z,100375.06
2023-01-22T15:28:22.991Z,100368.38
2023-01-22T15:30:59.960Z,100359.44
2023-01-22T15:33:40.055Z,100356.41
2023-01-22T15:36:13.561Z,100338.34
2023-01-22T15:38:47.250Z,100329.81
2023-01-22T15:41:35.111Z,100312.28
2023-01-22T15:44:12.545Z,100311.75
2023-01-22T15:46:49.377Z,100320.66
2023-01-22T15:49:22.998Z,100334.97
2023-01-22T15:52:03.194Z,100341.75
2023-01-22T15:54:43.967Z,100345.09
2023-01-22T15:57:18.341Z,100351.78
2023-01-22T15:59:50.167Z,100357.09
2023-01-22T16:02:20.105Z,100357.09
2023-01-22T16:04:54.318Z,100335.50
2023-01-22T16:07:24.321Z,100310.63
2023-01-22T16:10:07.697Z,100306.09
2023-01-22T16:12:39.663Z,100298.19
2023-01-22T16:15:12.581Z,100288.25
2023-01-22T16:17:46.299Z,100297.28
2023-01-22T16:20:19.662Z,100281.31
2023-01-22T16:22:54.087Z,100283.97
2023-01-22T16:25:24.109Z,100270.34
2023-01-22T16:28:09.326Z,100275.88
2023-01-22T16:30:44.508Z,100265.03
2023-01-22T16:33:36.814Z,100269.69
2023-01-22T16:36:18.822Z,100253.59
2023-01-22T16:38:54.989Z,100246.47
2023-01-22T16:41:38.108Z,100226.53
2023-01-22T16:45:03.724Z,100212.94
2023-01-22T16:48:05.284Z,100197.13
2023-01-22T16:51:06.669Z,100198.34
2023-01-22T16:53:48.238Z,100196.00
2023-01-22T16:56:51.221Z,100172.03
2023-01-22T17:00:10.486Z,100154.56
2023-01-22T17:02:56.195Z,100157.22
2023-01-22T17:05:40.003Z,100141.75
2023-01-22T17:08:18.927Z,100135.91
2023-01-22T17:10:50.744Z,100109.44
2023-01-22T17:13:23.098Z,100089.81
2023-01-22T17:15:56.121Z,100087.47
2023-01-22T17:18:43.121Z,100096.81
2023-01-22T17:21:20.681Z,100104.09
2023-01-22T17:23:54.825Z,100097.81
2023-01-22T17:26:54.666Z,100087.63
2023-01-22T17:29:30.779Z,100092.78
2023-01-22T17:32:07.365Z,100078.97
2023-01-22T17:34:45.879Z,100087.47
2023-01-22T17:37:17.608Z,100086.81
2023-01-22T17:39:55.477Z,100075.00
2023-01-22T17:42:26.815Z,100080.63
2023-01-22T17:45:03.985Z,100088.81
2023-01-22T17:47:36.663Z,100089.13
2023-01-22T17:50:11.225Z,100084.13
2023-01-22T17:52:44.578Z,100102.78
2023-01-22T17:55:19.906Z,100081.16
2023-01-22T17:57:59.831Z,100077.13
2023-01-22T18:00:36.413Z,100077.47
2023-01-22T18:03:08.625Z,100044.34
2023-01-22T18:06:32.238Z,100061.78
2023-01-22T18:28:23.318Z,99991.66
2023-01-22T18:31:22.948Z,99975.66
2023-01-22T18:33:55.914Z,99974.22
2023-01-22T18:36:39.169Z,99958.06
2023-01-22T18:39:13.855Z,99939.38
2023-01-22T18:41:44.343Z,99934.31
2023-01-22T18:44:19.048Z,99919.69
2023-01-22T18:46:52.956Z,99931.38
2023-01-22T18:49:24.157Z,99942.75
2023-01-22T18:51:55.233Z,99933.25
2023-01-22T18:54:24.256Z,99929.72
2023-01-22T18:56:54.142Z,99927.06
2023-01-22T18:59:23.505Z,99924.69
2023-01-22T19:01:55.861Z,99919.00
2023-01-22T19:04:35.909Z,99907.50
2023-01-22T19:07:07.464Z,99896.13
2023-01-22T19:09:38.483Z,99900.63
2023-01-22T19:12:08.456Z,99890.31
2023-01-22T19:14:39.178Z,99891.44
2023-01-22T19:17:08.390Z,99891.28
2023-01-22T19:19:38.936Z,99876.56
2023-01-22T19:22:07.926Z,99872.22
2023-01-22T19:24:38.602Z,99861.31
2023-01-22T19:27:08.798Z,99852.94
2023-01-22T19:29:38.492Z,99856.31
2023-01-22T19:32:11.701Z,99853.06
2023-01-22T19:34:43.440Z,99850.03
2023-01-22T19:37:14.436Z,99848.84
2023-01-22T19:39:43.809Z,99846.66
2023-01-22T19:42:14.416Z,99841.16
2023-01-22T19:44:43.844Z,99840.31
2023-01-22T19:47:15.508Z,99841.50
2023-01-22T19:49:45.296Z,99837.94
2023-01-22T19:52:17.300Z,99832.03
2023-01-22T19:54:49.698Z,99834.09
2023-01-22T19:57:19.729Z,99833.28
2023-01-22T19:59:54.583Z,99835.94
2023-01-22T20:02:24.216Z,99831.06
2023-01-22T20:04:55.090Z,99830.66
2023-01-22T20:07:32.198Z,99835.66
2023-01-22T20:10:26.666Z,99844.88
2023-01-22T20:13:02.113Z,99844.34
2023-01-22T20:15:31.902Z,99833.75
2023-01-22T20:18:02.205Z,99830.16
2023-01-22T20:20:32.293Z,99821.88
2023-01-22T20:23:01.677Z,99835.38
2023-01-22T20:25:33.045Z,99848.88
2023-01-22T20:28:02.511Z,99855.03
2023-01-22T20:30:34.704Z,99848.28
2023-01-22T20:33:04.108Z,99844.59
2023-01-22T20:35:36.868Z,99843.56
2023-01-22T20:38:08.135Z,99845.97
2023-01-22T20:40:43.212Z,99859.50
2023-01-22T20:43:15.354Z,99846.44
2023-01-22T20:45:47.246Z,99824.72
2023-01-22T20:48:16.175Z,99821.69
2023-01-22T20:50:48.835Z,99821.03
2023-01-22T20:53:20.356Z,99802.28
2023-01-22T20:56:01.858Z,99809.19
2023-01-22T20:58:33.752Z,99794.53
2023-01-22T21:01:12.052Z,99793.81
2023-01-22T21:03:41.508Z,99776.50
2023-01-22T21:06:14.015Z,99768.03
2023-01-22T21:08:49.773Z,99761.69
2023-01-22T21:11:22.872Z,99754.13
2023-01-22T21:13:53.989Z,99745.88
2023-01-22T21:16:32.315Z,99739.16
2023-01-22T21:19:08.234Z,99742.50
2023-01-22T21:21:39.251Z,99703.44
2023-01-22T21:24:09.554Z,99709.41
2023-01-22T21:26:40.875Z,99715.69
2023-01-22T21:29:17.364Z,99711.66
2023-01-22T21:31:50.837Z,99694.41
2023-01-22T21:34:23.601Z,99699.88
2023-01-22T21:36:55.470Z,99701.59
2023-01-22T21:39:32.279Z,99695.66
2023-01-22T21:42:21.615Z,99691.00
2023-01-22T21:45:08.555Z,99677.69
2023-01-22T21:47:39.277Z,99660.31
2023-01-22T21:50:09.555Z,99640.72
2023-01-22T21:52:39.812Z,99609.44
2023-01-22T21:55:10.700Z,99618.56
2023-01-22T21:57:41.710Z,99651.41
2023-01-22T22:00:11.527Z,99658.72
2023-01-22T22:02:42.310Z,99657.59
2023-01-22T22:05:13.217Z,99661.38
2023-01-22T22:07:44.492Z,99650.38
2023-01-22T22:10:16.886Z,99653.22
2023-01-22T22:12:47.993Z,99638.25
2023-01-22T22:15:17.823Z,99634.44
2023-01-22T22:17:47.685Z,99646.06
2023-01-22T22:20:18.397Z,99644.25
2023-01-22T22:22:48.021Z,99634.66
2023-01-22T22:25:17.627Z,99640.09
2023-01-22T22:27:48.198Z,99661.47
2023-01-22T22:30:20.324Z,99651.91
2023-01-22T22:32:51.558Z,99635.78
2023-01-22T22:35:20.595Z,99650.97
2023-01-22T22:37:51.853Z,99668.47
2023-01-22T22:40:23.229Z,99680.06
2023-01-22T22:42:55.030Z,99671.06
2023-01-22T22:45:23.899Z,99681.75
2023-01-22T22:47:54.063Z,99672.53
2023-01-22T22:50:23.536Z,99671.13
2023-01-22T22:52:53.925Z,99653.34
2023-01-22T22:55:23.989Z,99668.59
2023-01-22T22:57:54.012Z,99668.06
2023-01-22T23:00:23.889Z,99659.81
2023-01-22T23:02:54.504Z,99648.63
2023-01-22T23:05:24.274Z,99643.44
2023-01-22T23:07:55.827Z,99650.03
2023-01-22T23:10:30.837Z,99669.69
2023-01-22T23:13:06.498Z,99687.84
2023-01-22T23:15:35.737Z,99708.28
2023-01-22T23:18:04.454Z,99702.75
2023-01-22T23:20:35.529Z,99673.97
2023-01-22T23:23:04.442Z,99670.59
2023-01-22T23:25:34.279Z,99646.25
2023-01-22T23:28:46.991Z,99626.75
2023-01-22T23:31:48.355Z,99632.16
2023-01-22T23:38:02.930Z,99583.63
2023-01-22T23:41:33.056Z,99552.34
2023-01-22T23:49:23.952Z,99515.91
2023-01-22T23:52:23.343Z,99530.75
2023-01-22T23:56:50.428Z,99534.25
